createdAt,value
2018-05-31T00:02:00.330Z,11.03
2018-05-31T00:04:28.823Z,10.77
2018-05-31T00:06:56.945Z,12.13
2018-05-31T00:09:25.657Z,10.03
2018-05-31T00:11:55.117Z,7.67
2018-05-31T00:14:23.857Z,13.23
2018-05-31T00:16:53.150Z,10.47
2018-05-31T00:19:22.553Z,10.60
2018-05-31T00:21:51.605Z,11.63
2018-05-31T00:24:20.642Z,8.37
2018-05-31T00:26:48.741Z,12.00
2018-05-31T00:29:17.329Z,11.87
2018-05-31T00:31:45.505Z,8.00
2018-05-31T00:34:14.664Z,9.87
2018-05-31T00:36:43.167Z,11.97
2018-05-31T00:39:11.797Z,14.03
2018-05-31T00:41:40.230Z,11.13
2018-05-31T00:44:09.270Z,9.37
2018-05-31T00:46:37.984Z,10.27
2018-05-31T00:49:06.213Z,14.43
2018-05-31T00:51:34.460Z,14.13
2018-05-31T00:54:02.704Z,12.53
2018-05-31T00:56:30.803Z,9.77
2018-05-31T00:58:58.893Z,12.40
2018-05-31T01:01:27.167Z,11.83
2018-05-31T01:03:55.610Z,8.43
2018-05-31T01:06:23.705Z,11.30
2018-05-31T01:08:51.873Z,9.87
2018-05-31T01:11:20.065Z,10.73
2018-05-31T01:13:48.341Z,10.30
2018-05-31T01:16:16.472Z,9.47
2018-05-31T01:18:45.369Z,10.60
2018-05-31T01:21:13.480Z,9.07
2018-05-31T01:23:41.602Z,9.83
2018-05-31T01:26:09.822Z,13.43
2018-05-31T01:28:37.982Z,10.23
2018-05-31T01:31:05.992Z,11.97
2018-05-31T01:33:34.189Z,11.37
2018-05-31T01:36:02.505Z,12.53
2018-05-31T01:38:32.532Z,11.60
2018-05-31T01:41:00.808Z,10.77
2018-05-31T01:43:29.212Z,11.37
2018-05-31T01:45:57.897Z,13.53
2018-05-31T01:48:26.072Z,10.27
2018-05-31T01:50:54.276Z,10.53
2018-05-31T01:53:22.433Z,12.90
2018-05-31T01:55:50.554Z,9.87
2018-05-31T01:58:18.842Z,10.43
2018-05-31T02:00:47.038Z,9.10
2018-05-31T02:03:15.160Z,10.83
2018-05-31T02:05:45.265Z,13.73
2018-05-31T02:08:14.386Z,10.03
2018-05-31T02:10:42.613Z,12.10
2018-05-31T02:13:10.697Z,11.37
2018-05-31T02:15:39.065Z,25.50
2018-05-31T02:18:07.246Z,38.20
2018-05-31T02:20:35.301Z,38.77
2018-05-31T02:23:03.636Z,38.67
2018-05-31T02:25:31.983Z,41.33
2018-05-31T02:28:01.872Z,39.00
2018-05-31T02:30:30.181Z,26.57
2018-05-31T02:32:58.490Z,39.70
2018-05-31T02:35:26.690Z,36.43
2018-05-31T02:37:54.778Z,33.77
2018-05-31T02:40:23.976Z,25.10
2018-05-31T02:42:52.412Z,28.33
2018-05-31T02:45:21.018Z,29.63
2018-05-31T02:47:49.294Z,21.90
2018-05-31T02:50:17.804Z,23.03
2018-05-31T02:52:45.925Z,16.07
2018-05-31T02:55:16.048Z,13.67
2018-05-31T02:57:44.709Z,11.17
2018-05-31T03:00:13.006Z,11.77
2018-05-31T03:02:41.521Z,10.97
2018-05-31T03:05:09.793Z,14.47
2018-05-31T03:07:37.998Z,11.93
2018-05-31T03:10:06.568Z,10.10
2018-05-31T03:12:35.434Z,15.30
2018-05-31T03:15:03.847Z,11.13
2018-05-31T03:17:32.203Z,12.80
2018-05-31T03:20:01.401Z,11.27
2018-05-31T03:22:29.604Z,11.37
2018-05-31T03:24:58.111Z,10.83
2018-05-31T03:27:26.587Z,11.73
2018-05-31T03:29:56.183Z,9.60
2018-05-31T03:32:28.226Z,10.37
2018-05-31T03:34:56.636Z,11.00
2018-05-31T03:37:28.688Z,11.17
2018-05-31T03:39:57.075Z,9.93
2018-05-31T03:42:25.304Z,10.40
2018-05-31T03:44:53.479Z,11.50
2018-05-31T03:47:21.826Z,13.17
2018-05-31T03:49:50.348Z,11.10
2018-05-31T03:52:19.348Z,9.57
2018-05-31T03:54:47.718Z,13.27
2018-05-31T03:57:16.726Z,11.03
2018-05-31T03:59:45.130Z,13.67
2018-05-31T04:02:13.573Z,10.27
2018-05-31T04:04:42.013Z,10.63
2018-05-31T04:07:10.618Z,11.93
2018-05-31T04:09:38.779Z,11.70
2018-05-31T04:12:07.049Z,13.00
2018-05-31T04:14:35.195Z,9.93
2018-05-31T04:17:03.720Z,11.57
2018-05-31T04:19:31.925Z,9.30
2018-05-31T04:22:00.820Z,9.47
2018-05-31T04:24:29.814Z,9.83
2018-05-31T04:26:58.092Z,11.97
2018-05-31T04:29:26.430Z,11.73
2018-05-31T04:31:55.521Z,10.70
2018-05-31T04:34:24.220Z,9.53
2018-05-31T04:36:53.488Z,12.93
2018-05-31T04:39:22.384Z,11.03
2018-05-31T04:41:51.563Z,12.13
2018-05-31T04:44:19.753Z,11.53
2018-05-31T04:46:48.640Z,12.53
2018-05-31T04:49:17.115Z,9.50
2018-05-31T04:51:45.572Z,13.10
2018-05-31T04:54:14.200Z,10.40
2018-05-31T04:56:42.300Z,16.07
2018-05-31T04:59:11.685Z,12.07
2018-05-31T05:01:40.594Z,12.90
2018-05-31T05:04:09.794Z,13.20
2018-05-31T05:06:38.942Z,11.67
2018-05-31T05:09:07.990Z,10.27
2018-05-31T05:11:36.466Z,13.23
2018-05-31T05:14:05.498Z,13.87
2018-05-31T05:16:33.783Z,12.93
2018-05-31T05:19:02.163Z,10.27
2018-05-31T05:21:30.604Z,10.90
2018-05-31T05:23:58.802Z,11.07
2018-05-31T05:26:26.940Z,12.57
2018-05-31T05:28:55.808Z,10.37
2018-05-31T05:31:24.127Z,10.50
2018-05-31T05:33:53.407Z,10.70
2018-05-31T05:36:22.387Z,12.40
2018-05-31T05:38:50.607Z,12.30
2018-05-31T05:41:19.464Z,9.97
2018-05-31T05:43:47.677Z,11.20
2018-05-31T05:46:16.099Z,12.60
2018-05-31T05:48:45.063Z,10.23
2018-05-31T05:51:13.244Z,12.07
2018-05-31T05:53:41.588Z,12.43
2018-05-31T05:56:09.877Z,13.50
2018-05-31T05:58:38.779Z,12.23
2018-05-31T06:01:06.903Z,12.73
2018-05-31T06:03:34.990Z,11.17
2018-05-31T06:06:03.452Z,13.73
2018-05-31T06:08:31.635Z,10.93
2018-05-31T06:10:59.847Z,14.10
2018-05-31T06:13:28.017Z,16.33
2018-05-31T06:15:56.786Z,11.73
2018-05-31T06:18:25.133Z,12.57
2018-05-31T06:20:53.375Z,14.13
2018-05-31T06:23:21.856Z,11.37
2018-05-31T06:25:51.549Z,10.43
2018-05-31T06:28:20.820Z,12.90
2018-05-31T06:30:49.145Z,12.10
2018-05-31T06:33:17.532Z,12.53
2018-05-31T06:35:46.035Z,12.47
2018-05-31T06:38:15.006Z,11.27
2018-05-31T06:40:44.010Z,11.57
2018-05-31T06:43:13.092Z,10.77
2018-05-31T06:45:42.642Z,11.40
2018-05-31T06:48:11.046Z,10.90
2018-05-31T06:50:39.677Z,11.30
2018-05-31T06:53:08.875Z,13.87
2018-05-31T06:55:37.162Z,11.10
2018-05-31T06:58:05.601Z,13.23
2018-05-31T07:00:33.932Z,11.10
2018-05-31T07:03:02.369Z,10.23
2018-05-31T07:05:30.794Z,10.40
2018-05-31T07:07:59.169Z,11.50
2018-05-31T07:10:28.018Z,12.93
2018-05-31T07:12:58.140Z,12.30
2018-05-31T07:15:26.508Z,13.20
2018-05-31T07:17:55.182Z,9.70
2018-05-31T07:20:23.751Z,8.37
2018-05-31T07:22:51.934Z,12.27
2018-05-31T07:25:20.199Z,10.60
2018-05-31T07:27:48.797Z,9.10
2018-05-31T07:30:16.956Z,10.87
2018-05-31T07:32:45.341Z,9.80
2018-05-31T07:35:13.614Z,10.37
2018-05-31T07:37:41.855Z,9.80
2018-05-31T07:40:10.055Z,11.87
2018-05-31T07:42:38.282Z,10.87
2018-05-31T07:45:07.462Z,10.00
2018-05-31T07:47:36.590Z,13.07
2018-05-31T07:50:05.624Z,10.93
2018-05-31T07:52:35.135Z,12.37
2018-05-31T07:55:03.573Z,11.70
2018-05-31T07:57:32.709Z,9.47
2018-05-31T08:00:00.877Z,10.23
2018-05-31T08:02:29.115Z,11.37
2018-05-31T08:04:57.538Z,14.40
2018-05-31T08:07:25.676Z,13.13
2018-05-31T08:09:54.537Z,9.53
2018-05-31T08:12:22.817Z,10.60
2018-05-31T08:14:51.871Z,11.07
2018-05-31T08:17:20.188Z,10.70
2018-05-31T08:19:49.358Z,11.97
2018-05-31T08:22:17.769Z,9.87
2018-05-31T08:24:46.621Z,11.77
2018-05-31T08:27:14.692Z,13.50
2018-05-31T08:29:43.282Z,13.80
2018-05-31T08:32:11.574Z,12.87
2018-05-31T08:34:40.211Z,13.33
2018-05-31T08:37:09.663Z,11.33
2018-05-31T08:39:39.164Z,12.37
2018-05-31T08:42:08.058Z,11.47
2018-05-31T08:44:37.308Z,11.80
2018-05-31T08:47:05.870Z,13.50
2018-05-31T08:49:34.300Z,13.67
2018-05-31T08:52:02.413Z,11.93
2018-05-31T08:54:30.593Z,13.90
2018-05-31T08:56:59.144Z,10.00
2018-05-31T08:59:28.617Z,11.10
2018-05-31T09:01:57.707Z,15.47
2018-05-31T09:04:25.883Z,9.70
2018-05-31T09:06:54.145Z,9.40
2018-05-31T09:09:22.466Z,12.07
2018-05-31T09:11:50.626Z,9.23
2018-05-31T09:14:18.914Z,11.47
2018-05-31T09:16:48.076Z,9.30
2018-05-31T09:19:16.883Z,10.07
2018-05-31T09:21:45.142Z,10.20
2018-05-31T09:24:13.375Z,9.20
2018-05-31T09:26:41.624Z,11.63
2018-05-31T09:29:10.598Z,9.87
2018-05-31T09:31:39.129Z,9.87
2018-05-31T09:34:07.373Z,9.67
2018-05-31T09:36:35.723Z,9.63
2018-05-31T09:39:05.028Z,9.20
2018-05-31T09:41:35.019Z,9.80
2018-05-31T09:44:03.072Z,10.00
2018-05-31T09:46:31.418Z,14.43
2018-05-31T09:48:59.537Z,10.67
2018-05-31T09:51:27.914Z,9.70
2018-05-31T09:53:56.271Z,9.37
2018-05-31T09:56:24.411Z,11.10
2018-05-31T09:58:53.361Z,9.60
2018-05-31T10:01:21.838Z,9.07
2018-05-31T10:03:50.233Z,9.63
2018-05-31T10:06:19.003Z,9.80
2018-05-31T10:08:47.390Z,9.73
2018-05-31T10:11:16.127Z,9.90
2018-05-31T10:13:45.424Z,9.87
2018-05-31T10:16:13.941Z,9.13
2018-05-31T10:18:42.514Z,7.23
2018-05-31T10:21:10.724Z,7.97
2018-05-31T10:23:38.890Z,7.87
2018-05-31T10:26:07.746Z,9.57
2018-05-31T10:28:35.994Z,7.63
2018-05-31T10:31:04.065Z,8.17
2018-05-31T10:33:34.485Z,7.87
2018-05-31T10:36:04.388Z,8.43
2018-05-31T10:38:33.349Z,8.70
2018-05-31T10:41:01.748Z,7.60
2018-05-31T10:43:29.937Z,8.20
2018-05-31T10:45:58.276Z,7.47
2018-05-31T10:48:26.609Z,7.07
2018-05-31T10:50:54.888Z,7.60
2018-05-31T10:53:22.988Z,7.60
2018-05-31T10:55:51.489Z,9.17
2018-05-31T10:58:20.002Z,9.83
2018-05-31T11:00:48.787Z,8.53
2018-05-31T11:03:17.149Z,8.77
2018-05-31T11:05:45.739Z,8.43
2018-05-31T11:08:13.878Z,9.17
2018-05-31T11:10:42.006Z,7.30
2018-05-31T11:13:10.364Z,10.27
2018-05-31T11:15:38.757Z,7.73
2018-05-31T11:18:07.840Z,9.40
2018-05-31T11:20:35.897Z,7.80
2018-05-31T11:23:04.416Z,8.60
2018-05-31T11:25:32.833Z,7.80
2018-05-31T11:28:01.276Z,7.90
2018-05-31T11:30:29.541Z,7.43
2018-05-31T11:32:57.745Z,8.50
2018-05-31T11:35:26.120Z,10.13
2018-05-31T11:37:54.481Z,8.57
2018-05-31T11:40:22.588Z,9.73
2018-05-31T11:42:50.898Z,7.87
2018-05-31T11:45:20.489Z,7.50
2018-05-31T11:47:49.091Z,8.90
2018-05-31T11:50:17.461Z,7.30
2018-05-31T11:52:45.707Z,7.27
2018-05-31T11:55:13.819Z,9.50
2018-05-31T11:57:42.954Z,9.03
2018-05-31T12:00:10.980Z,6.63
2018-05-31T12:02:39.197Z,6.03
2018-05-31T12:05:08.209Z,7.77
2018-05-31T12:07:36.415Z,10.37
2018-05-31T12:10:06.131Z,11.63
2018-05-31T12:12:34.494Z,11.83
2018-05-31T12:15:02.857Z,9.60
2018-05-31T12:17:31.001Z,9.93
2018-05-31T12:19:59.547Z,6.67
2018-05-31T12:22:27.918Z,8.47
2018-05-31T12:24:56.406Z,6.73
2018-05-31T12:27:24.593Z,7.87
2018-05-31T12:29:53.169Z,7.73
2018-05-31T12:32:21.359Z,8.77
2018-05-31T12:34:50.108Z,7.23
2018-05-31T12:37:18.223Z,7.10
2018-05-31T12:39:47.141Z,9.20
2018-05-31T12:42:15.517Z,10.83
2018-05-31T12:44:43.863Z,7.83
2018-05-31T12:47:13.950Z,8.80
2018-05-31T12:49:42.909Z,6.70
2018-05-31T12:52:11.322Z,6.20
2018-05-31T12:54:39.488Z,7.97
2018-05-31T12:57:07.639Z,8.93
2018-05-31T12:59:35.930Z,9.60
2018-05-31T13:02:04.253Z,12.43
2018-05-31T13:04:32.381Z,10.40
2018-05-31T13:07:01.601Z,5.20
2018-05-31T13:09:30.979Z,9.27
2018-05-31T13:11:59.531Z,8.20
2018-05-31T13:14:29.684Z,6.20
2018-05-31T13:16:58.779Z,8.13
2018-05-31T13:19:27.842Z,9.10
2018-05-31T13:21:56.150Z,8.23
2018-05-31T13:24:24.655Z,7.93
2018-05-31T13:26:53.853Z,7.60
2018-05-31T13:29:23.119Z,5.13
2018-05-31T13:31:51.248Z,6.73
2018-05-31T13:34:19.376Z,6.20
2018-05-31T13:36:48.354Z,5.90
2018-05-31T13:39:16.798Z,4.63
2018-05-31T13:41:45.357Z,5.70
2018-05-31T13:44:14.609Z,4.77
2018-05-31T13:46:43.321Z,4.70
2018-05-31T13:49:12.339Z,8.17
2018-05-31T13:51:40.753Z,6.73
2018-05-31T13:54:09.368Z,8.43
2018-05-31T13:56:38.020Z,6.70
2018-05-31T13:59:07.201Z,9.33
2018-05-31T14:01:35.855Z,6.27
2018-05-31T14:04:04.495Z,9.37
2018-05-31T14:06:32.763Z,7.50
2018-05-31T14:09:01.666Z,8.20
2018-05-31T14:11:29.775Z,7.30
2018-05-31T14:13:59.005Z,8.90
2018-05-31T14:16:27.227Z,6.67
2018-05-31T14:18:55.394Z,7.10
2018-05-31T14:21:24.599Z,6.37
2018-05-31T14:23:52.785Z,6.43
2018-05-31T14:26:22.009Z,26.67
2018-05-31T14:28:50.489Z,14.20
2018-05-31T14:31:18.912Z,10.07
2018-05-31T14:33:47.170Z,7.23
2018-05-31T14:36:15.327Z,6.40
2018-05-31T14:38:44.371Z,5.03
2018-05-31T14:41:13.300Z,6.93
2018-05-31T14:43:41.640Z,7.53
2018-05-31T14:46:09.828Z,7.20
2018-05-31T14:48:39.085Z,10.63
2018-05-31T14:51:09.452Z,12.13
2018-05-31T14:53:37.993Z,7.00
2018-05-31T14:56:06.337Z,6.53
2018-05-31T14:58:34.800Z,6.20
2018-05-31T15:01:03.877Z,6.13
2018-05-31T15:03:33.242Z,6.67
2018-05-31T15:06:01.775Z,7.83
2018-05-31T15:08:30.042Z,7.73
2018-05-31T15:10:58.337Z,7.33
2018-05-31T15:13:27.246Z,5.30
2018-05-31T15:15:55.588Z,9.00
2018-05-31T15:18:24.851Z,6.03
2018-05-31T15:20:53.076Z,6.57
2018-05-31T15:23:21.366Z,6.07
2018-05-31T15:25:49.456Z,9.53
2018-05-31T15:28:18.536Z,7.43
2018-05-31T15:30:46.765Z,6.03
2018-05-31T15:33:16.796Z,7.70
2018-05-31T15:35:45.728Z,7.60
2018-05-31T15:38:14.514Z,8.30
2018-05-31T15:40:43.028Z,9.63
2018-05-31T15:43:11.525Z,10.67
2018-05-31T15:45:40.063Z,7.77
2018-05-31T15:48:08.458Z,7.23
2018-05-31T15:50:37.549Z,7.43
2018-05-31T15:53:05.711Z,7.13
2018-05-31T15:55:34.340Z,7.57
2018-05-31T15:58:02.692Z,8.63
2018-05-31T16:00:31.153Z,10.20
2018-05-31T16:02:59.597Z,8.80
2018-05-31T16:05:27.833Z,8.93
2018-05-31T16:07:56.227Z,6.93
2018-05-31T16:10:24.404Z,8.10
2018-05-31T16:12:53.530Z,7.10
2018-05-31T16:15:22.629Z,8.47
2018-05-31T16:17:51.072Z,10.07
2018-05-31T16:20:19.713Z,9.27
2018-05-31T16:22:48.039Z,10.57
2018-05-31T16:25:16.622Z,9.40
2018-05-31T16:27:45.646Z,7.33
2018-05-31T16:30:14.185Z,9.47
2018-05-31T16:32:42.281Z,9.03
2018-05-31T16:35:11.190Z,7.50
2018-05-31T16:37:39.517Z,8.43
2018-05-31T16:40:08.480Z,5.60
2018-05-31T16:42:36.543Z,7.53
2018-05-31T16:45:04.800Z,6.70
2018-05-31T16:47:34.026Z,5.50
2018-05-31T16:50:02.205Z,8.03
2018-05-31T16:52:30.421Z,6.10
2018-05-31T16:54:58.955Z,5.87
2018-05-31T16:57:27.165Z,5.30
2018-05-31T16:59:55.349Z,5.80
2018-05-31T17:02:24.441Z,6.27
2018-05-31T17:04:53.572Z,7.20
2018-05-31T17:07:22.011Z,7.23
2018-05-31T17:09:51.160Z,4.73
2018-05-31T17:12:19.348Z,5.80
2018-05-31T17:14:48.439Z,6.60
2018-05-31T17:17:19.879Z,3.80
2018-05-31T17:19:48.888Z,6.53
2018-05-31T17:22:17.919Z,3.87
2018-05-31T17:24:46.304Z,4.83
2018-05-31T17:27:15.794Z,4.60
2018-05-31T17:29:44.963Z,5.47
2018-05-31T17:32:13.185Z,4.10
2018-05-31T17:34:42.233Z,4.70
2018-05-31T17:37:11.341Z,5.03
2018-05-31T17:39:39.764Z,3.47
2018-05-31T17:42:07.965Z,6.93
2018-05-31T17:44:36.495Z,4.53
2018-05-31T17:47:06.352Z,4.87
2018-05-31T17:49:34.865Z,5.20
2018-05-31T17:52:03.428Z,6.07
2018-05-31T17:54:31.601Z,5.50
2018-05-31T17:57:00.958Z,5.70
2018-05-31T17:59:29.339Z,4.73
2018-05-31T18:01:58.331Z,5.17
2018-05-31T18:04:26.921Z,5.13
2018-05-31T18:06:55.309Z,5.17
2018-05-31T18:09:23.621Z,4.10
2018-05-31T18:11:52.140Z,4.33
2018-05-31T18:14:21.966Z,4.50
2018-05-31T18:16:51.192Z,4.57
2018-05-31T18:19:19.675Z,6.37
2018-05-31T18:21:47.819Z,6.37
2018-05-31T18:24:16.144Z,5.23
2018-05-31T18:26:45.154Z,5.90
2018-05-31T18:29:14.174Z,5.00
2018-05-31T18:31:42.445Z,6.53
2018-05-31T18:34:11.341Z,5.37
2018-05-31T18:36:40.179Z,5.17
2018-05-31T18:39:11.021Z,4.83
2018-05-31T18:41:39.187Z,4.97
2018-05-31T18:44:07.360Z,4.43
2018-05-31T18:46:35.944Z,5.13
2018-05-31T18:49:04.607Z,4.13
2018-05-31T18:51:33.062Z,5.17
2018-05-31T18:54:02.228Z,4.70
2018-05-31T18:56:31.064Z,4.27
2018-05-31T18:59:00.516Z,7.67
2018-05-31T19:01:30.119Z,6.57
2018-05-31T19:04:00.452Z,5.07
2018-05-31T19:06:29.073Z,7.07
2018-05-31T19:08:57.448Z,4.60
2018-05-31T19:11:26.425Z,5.40
2018-05-31T19:13:58.463Z,5.97
2018-05-31T19:16:26.580Z,4.57
2018-05-31T19:18:59.139Z,4.50
2018-05-31T19:21:28.422Z,5.63
2018-05-31T19:24:01.134Z,5.57
2018-05-31T19:26:29.845Z,4.83
2018-05-31T19:28:58.153Z,6.70
2018-05-31T19:31:26.586Z,6.67
2018-05-31T19:33:54.653Z,8.77
2018-05-31T19:36:28.612Z,8.27
2018-05-31T19:38:56.827Z,8.00
2018-05-31T19:41:26.014Z,6.03
2018-05-31T19:44:58.559Z,9.23
2018-05-31T19:47:26.617Z,6.17
2018-05-31T19:49:54.942Z,6.10
2018-05-31T19:54:33.545Z,6.40
2018-05-31T19:57:02.107Z,5.87
2018-05-31T20:01:42.173Z,6.53
2018-05-31T20:04:11.193Z,5.97
2018-05-31T20:06:40.121Z,5.20
2018-05-31T20:09:08.442Z,6.27
2018-05-31T20:11:37.508Z,5.33
2018-05-31T20:14:05.704Z,6.07
2018-05-31T20:16:33.859Z,5.13
2018-05-31T20:19:02.305Z,5.83
2018-05-31T20:21:31.330Z,7.23
2018-05-31T20:23:59.521Z,7.20
2018-05-31T20:26:28.389Z,5.50
2018-05-31T20:28:56.977Z,5.47
2018-05-31T20:31:25.152Z,6.90
2018-05-31T20:33:53.872Z,5.80
2018-05-31T20:36:22.293Z,5.90
2018-05-31T20:38:50.517Z,7.07
2018-05-31T20:41:18.763Z,6.50
2018-05-31T20:43:47.045Z,8.20
2018-05-31T20:46:15.620Z,6.83
2018-05-31T20:48:44.108Z,5.93
2018-05-31T20:51:12.260Z,7.27
2018-05-31T20:53:40.332Z,6.10
2018-05-31T20:56:08.795Z,8.17
2018-05-31T20:58:37.836Z,7.13
2018-05-31T21:01:06.167Z,6.37
2018-05-31T21:03:34.617Z,8.90
2018-05-31T21:06:03.041Z,6.93
2018-05-31T21:08:31.344Z,4.97
2018-05-31T21:10:59.778Z,8.73
2018-05-31T21:13:28.245Z,7.60
2018-05-31T21:15:57.566Z,6.87
2018-05-31T21:18:26.492Z,7.80
2018-05-31T21:20:55.616Z,7.17
2018-05-31T21:23:24.642Z,9.43
2018-05-31T21:25:53.117Z,7.70
2018-05-31T21:28:22.248Z,8.00
2018-05-31T21:30:51.584Z,7.30
2018-05-31T21:33:19.867Z,7.90
2018-05-31T21:35:49.034Z,9.60
2018-05-31T21:38:17.401Z,8.47
2018-05-31T21:40:45.591Z,9.03
2018-05-31T21:43:14.048Z,8.70
2018-05-31T21:45:43.322Z,7.43
2018-05-31T21:48:11.628Z,6.97
2018-05-31T21:50:39.938Z,8.63
2018-05-31T21:53:08.260Z,8.60
2018-05-31T21:55:36.602Z,9.47
2018-05-31T21:58:04.869Z,9.50
2018-05-31T22:00:37.876Z,10.00
2018-05-31T22:03:07.182Z,7.53
2018-05-31T22:05:36.175Z,8.03
2018-05-31T22:08:04.546Z,12.77
2018-05-31T22:10:33.800Z,7.87
2018-05-31T22:13:02.447Z,6.77
2018-05-31T22:15:30.655Z,8.03
2018-05-31T22:17:58.905Z,7.77
2018-05-31T22:20:27.358Z,13.90
2018-05-31T22:22:55.852Z,6.90
2018-05-31T22:25:24.539Z,8.80
2018-05-31T22:27:55.067Z,7.80
2018-05-31T22:30:23.344Z,7.43
2018-05-31T22:32:51.723Z,8.43
2018-05-31T22:35:20.237Z,7.60
2018-05-31T22:37:48.660Z,9.13
2018-05-31T22:40:17.534Z,7.43
2018-05-31T22:42:46.009Z,13.23
2018-05-31T22:45:14.667Z,9.17
2018-05-31T22:47:43.570Z,8.30
2018-05-31T22:50:11.665Z,9.37
2018-05-31T22:52:39.884Z,9.83
2018-05-31T22:55:08.412Z,10.53
2018-05-31T22:57:37.080Z,8.47
2018-05-31T23:00:05.647Z,10.10
2018-05-31T23:02:33.907Z,11.03
2018-05-31T23:05:05.180Z,7.80
2018-05-31T23:07:33.479Z,7.03
2018-05-31T23:10:01.781Z,8.47
2018-05-31T23:12:30.711Z,10.50
2018-05-31T23:14:59.448Z,8.30
2018-05-31T23:17:28.337Z,7.97
2018-05-31T23:19:57.520Z,8.37
2018-05-31T23:22:25.860Z,10.67
2018-05-31T23:24:54.166Z,9.07
2018-05-31T23:27:22.439Z,9.17
2018-05-31T23:29:51.378Z,9.33
2018-05-31T23:32:19.732Z,9.50
2018-05-31T23:34:48.983Z,8.70
2018-05-31T23:37:18.091Z,10.43
2018-05-31T23:39:46.282Z,8.37
2018-05-31T23:42:14.603Z,7.90
2018-05-31T23:44:42.921Z,10.30
2018-05-31T23:47:11.318Z,10.33
2018-05-31T23:49:39.711Z,9.17
2018-05-31T23:52:07.880Z,8.23
2018-05-31T23:54:36.833Z,9.00
2018-05-31T23:57:05.240Z,9.00
2018-05-31T23:59:35.033Z,8.03
